sensor_id;sensor_type;location;lat;lon;timestamp;temperature;humidity
73252;DHT22;61473;50.834;4.552;2022-08-05T00:01:13;27.90;58.20
73252;DHT22;61473;50.834;4.552;2022-08-05T00:03:40;27.80;58.20
73252;DHT22;61473;50.834;4.552;2022-08-05T00:06:06;27.90;58.20
73252;DHT22;61473;50.834;4.552;2022-08-05T00:08:33;27.90;58.20
73252;DHT22;61473;50.834;4.552;2022-08-05T00:11:00;27.90;58.20
73252;DHT22;61473;50.834;4.552;2022-08-05T00:13:25;27.90;58.80
73252;DHT22;61473;50.834;4.552;2022-08-05T00:15:51;27.80;58.20
73252;DHT22;61473;50.834;4.552;2022-08-05T00:18:17;27.90;58.30
73252;DHT22;61473;50.834;4.552;2022-08-05T00:20:42;27.80;58.20
73252;DHT22;61473;50.834;4.552;2022-08-05T00:23:08;27.90;58.20
73252;DHT22;61473;50.834;4.552;2022-08-05T00:25:34;27.80;58.20
73252;DHT22;61473;50.834;4.552;2022-08-05T00:27:59;27.80;58.20
73252;DHT22;61473;50.834;4.552;2022-08-05T00:30:25;27.80;58.20
73252;DHT22;61473;50.834;4.552;2022-08-05T00:32:51;27.80;58.20
73252;DHT22;61473;50.834;4.552;2022-08-05T00:35:16;27.80;58.20
73252;DHT22;61473;50.834;4.552;2022-08-05T00:37:42;27.80;58.20
73252;DHT22;61473;50.834;4.552;2022-08-05T00:40:09;27.80;58.20
73252;DHT22;61473;50.834;4.552;2022-08-05T00:42:36;27.80;58.20
73252;DHT22;61473;50.834;4.552;2022-08-05T00:45:04;27.80;58.90
73252;DHT22;61473;50.834;4.552;2022-08-05T00:47:30;27.80;58.20
73252;DHT22;61473;50.834;4.552;2022-08-05T00:49:56;27.80;58.90
73252;DHT22;61473;50.834;4.552;2022-08-05T00:52:21;27.80;58.20
73252;DHT22;61473;50.834;4.552;2022-08-05T00:54:48;27.80;58.30
73252;DHT22;61473;50.834;4.552;2022-08-05T00:57:13;27.80;58.30
73252;DHT22;61473;50.834;4.552;2022-08-05T00:59:39;27.80;58.30
73252;DHT22;61473;50.834;4.552;2022-08-05T01:02:05;27.70;58.20
73252;DHT22;61473;50.834;4.552;2022-08-05T01:04:31;27.80;58.30
73252;DHT22;61473;50.834;4.552;2022-08-05T01:06:56;27.80;58.30
73252;DHT22;61473;50.834;4.552;2022-08-05T01:09:22;27.80;58.30
73252;DHT22;61473;50.834;4.552;2022-08-05T01:11:51;27.80;58.30
73252;DHT22;61473;50.834;4.552;2022-08-05T01:14:23;27.70;58.90
73252;DHT22;61473;50.834;4.552;2022-08-05T01:19:50;27.70;58.20
73252;DHT22;61473;50.834;4.552;2022-08-05T01:30:48;27.70;58.20
73252;DHT22;61473;50.834;4.552;2022-08-05T01:33:16;27.70;58.30
73252;DHT22;61473;50.834;4.552;2022-08-05T01:35:44;27.70;58.30
73252;DHT22;61473;50.834;4.552;2022-08-05T01:38:12;27.70;58.30
73252;DHT22;61473;50.834;4.552;2022-08-05T01:40:40;27.70;58.30
73252;DHT22;61473;50.834;4.552;2022-08-05T01:43:07;27.70;58.30
73252;DHT22;61473;50.834;4.552;2022-08-05T01:45:34;27.70;58.30
73252;DHT22;61473;50.834;4.552;2022-08-05T01:48:02;27.70;58.30
73252;DHT22;61473;50.834;4.552;2022-08-05T01:50:31;27.70;58.90
73252;DHT22;61473;50.834;4.552;2022-08-05T01:52:59;27.70;58.30
73252;DHT22;61473;50.834;4.552;2022-08-05T01:55:28;27.70;58.90
73252;DHT22;61473;50.834;4.552;2022-08-05T01:57:56;27.70;58.30
73252;DHT22;61473;50.834;4.552;2022-08-05T02:00:23;27.70;58.30
73252;DHT22;61473;50.834;4.552;2022-08-05T02:02:59;27.70;58.30
73252;DHT22;61473;50.834;4.552;2022-08-05T02:05:31;27.70;58.30
73252;DHT22;61473;50.834;4.552;2022-08-05T02:07:57;27.70;58.30
73252;DHT22;61473;50.834;4.552;2022-08-05T02:10:26;27.60;58.20
73252;DHT22;61473;50.834;4.552;2022-08-05T02:12:57;27.70;58.30
73252;DHT22;61473;50.834;4.552;2022-08-05T02:15:27;27.70;58.30
73252;DHT22;61473;50.834;4.552;2022-08-05T02:20:31;27.60;58.20
73252;DHT22;61473;50.834;4.552;2022-08-05T02:23:04;27.60;58.20
73252;DHT22;61473;50.834;4.552;2022-08-05T02:25:34;27.60;58.20
73252;DHT22;61473;50.834;4.552;2022-08-05T02:28:02;27.60;58.20
73252;DHT22;61473;50.834;4.552;2022-08-05T02:30:56;27.60;58.30
73252;DHT22;61473;50.834;4.552;2022-08-05T02:33:23;27.60;58.20
73252;DHT22;61473;50.834;4.552;2022-08-05T02:35:51;27.60;58.20
73252;DHT22;61473;50.834;4.552;2022-08-05T02:38:18;27.60;58.20
73252;DHT22;61473;50.834;4.552;2022-08-05T02:40:45;27.60;58.30
73252;DHT22;61473;50.834;4.552;2022-08-05T02:43:12;27.60;58.30
73252;DHT22;61473;50.834;4.552;2022-08-05T02:45:39;27.60;58.30
73252;DHT22;61473;50.834;4.552;2022-08-05T02:48:07;27.60;58.30
73252;DHT22;61473;50.834;4.552;2022-08-05T02:50:34;27.60;58.30
73252;DHT22;61473;50.834;4.552;2022-08-05T02:53:01;27.60;58.30
73252;DHT22;61473;50.834;4.552;2022-08-05T02:55:29;27.60;58.30
73252;DHT22;61473;50.834;4.552;2022-08-05T02:57:57;27.60;58.20
73252;DHT22;61473;50.834;4.552;2022-08-05T03:00:24;27.60;58.20
73252;DHT22;61473;50.834;4.552;2022-08-05T03:02:51;27.50;58.20
73252;DHT22;61473;50.834;4.552;2022-08-05T03:05:18;27.60;58.30
73252;DHT22;61473;50.834;4.552;2022-08-05T03:07:44;27.60;58.30
73252;DHT22;61473;50.834;4.552;2022-08-05T03:10:14;27.60;58.30
73252;DHT22;61473;50.834;4.552;2022-08-05T03:12:39;27.60;58.30
73252;DHT22;61473;50.834;4.552;2022-08-05T03:15:07;27.60;58.40
73252;DHT22;61473;50.834;4.552;2022-08-05T03:17:34;27.60;58.30
73252;DHT22;61473;50.834;4.552;2022-08-05T03:19:59;27.60;58.30
73252;DHT22;61473;50.834;4.552;2022-08-05T03:22:26;27.60;58.30
73252;DHT22;61473;50.834;4.552;2022-08-05T03:24:52;27.60;58.30
73252;DHT22;61473;50.834;4.552;2022-08-05T03:27:19;27.60;58.30
73252;DHT22;61473;50.834;4.552;2022-08-05T03:29:45;27.60;58.30
73252;DHT22;61473;50.834;4.552;2022-08-05T03:32:12;27.50;58.20
73252;DHT22;61473;50.834;4.552;2022-08-05T03:34:40;27.50;58.30
73252;DHT22;61473;50.834;4.552;2022-08-05T03:37:06;27.50;58.20
73252;DHT22;61473;50.834;4.552;2022-08-05T03:39:32;27.50;58.20
73252;DHT22;61473;50.834;4.552;2022-08-05T03:41:58;27.50;58.20
73252;DHT22;61473;50.834;4.552;2022-08-05T03:44:24;27.50;58.20
73252;DHT22;61473;50.834;4.552;2022-08-05T03:46:50;27.50;58.30
73252;DHT22;61473;50.834;4.552;2022-08-05T03:49:16;27.50;58.20
73252;DHT22;61473;50.834;4.552;2022-08-05T03:51:49;27.50;58.20
73252;DHT22;61473;50.834;4.552;2022-08-05T03:54:51;27.50;58.20
73252;DHT22;61473;50.834;4.552;2022-08-05T03:57:21;27.50;58.20
73252;DHT22;61473;50.834;4.552;2022-08-05T04:00:11;27.50;58.20
73252;DHT22;61473;50.834;4.552;2022-08-05T04:02:39;27.50;58.20
73252;DHT22;61473;50.834;4.552;2022-08-05T04:05:08;27.50;58.90
73252;DHT22;61473;50.834;4.552;2022-08-05T04:07:34;27.50;58.20
73252;DHT22;61473;50.834;4.552;2022-08-05T04:10:00;27.50;58.20
73252;DHT22;61473;50.834;4.552;2022-08-05T04:12:28;27.50;58.20
73252;DHT22;61473;50.834;4.552;2022-08-05T04:14:54;27.50;58.20
73252;DHT22;61473;50.834;4.552;2022-08-05T04:17:20;27.50;58.20
73252;DHT22;61473;50.834;4.552;2022-08-05T04:19:47;27.50;58.20
73252;DHT22;61473;50.834;4.552;2022-08-05T04:22:13;27.50;58.20
73252;DHT22;61473;50.834;4.552;2022-08-05T04:24:40;27.50;58.20
73252;DHT22;61473;50.834;4.552;2022-08-05T04:27:06;27.50;58.20
73252;DHT22;61473;50.834;4.552;2022-08-05T04:29:32;27.50;58.20
73252;DHT22;61473;50.834;4.552;2022-08-05T04:31:58;27.50;58.20
73252;DHT22;61473;50.834;4.552;2022-08-05T04:34:24;27.50;58.20
73252;DHT22;61473;50.834;4.552;2022-08-05T04:36:50;27.50;58.20
73252;DHT22;61473;50.834;4.552;2022-08-05T04:39:19;27.50;58.20
73252;DHT22;61473;50.834;4.552;2022-08-05T04:41:45;27.50;58.20
73252;DHT22;61473;50.834;4.552;2022-08-05T04:44:11;27.50;58.20
73252;DHT22;61473;50.834;4.552;2022-08-05T04:46:37;27.50;58.80
73252;DHT22;61473;50.834;4.552;2022-08-05T04:49:03;27.50;58.10
73252;DHT22;61473;50.834;4.552;2022-08-05T04:51:29;27.50;58.10
73252;DHT22;61473;50.834;4.552;2022-08-05T04:53:56;27.50;58.20
73252;DHT22;61473;50.834;4.552;2022-08-05T04:56:22;27.50;58.20
73252;DHT22;61473;50.834;4.552;2022-08-05T04:58:47;27.50;58.10
73252;DHT22;61473;50.834;4.552;2022-08-05T05:01:13;27.50;58.20
73252;DHT22;61473;50.834;4.552;2022-08-05T05:03:38;27.50;58.20
73252;DHT22;61473;50.834;4.552;2022-08-05T05:06:04;27.50;58.10
73252;DHT22;61473;50.834;4.552;2022-08-05T05:08:30;27.50;58.10
73252;DHT22;61473;50.834;4.552;2022-08-05T05:10:55;27.50;58.10
73252;DHT22;61473;50.834;4.552;2022-08-05T05:13:21;27.50;58.10
73252;DHT22;61473;50.834;4.552;2022-08-05T05:15:47;27.50;58.80
73252;DHT22;61473;50.834;4.552;2022-08-05T05:18:13;27.50;58.10
73252;DHT22;61473;50.834;4.552;2022-08-05T05:20:42;27.50;58.10
73252;DHT22;61473;50.834;4.552;2022-08-05T05:23:08;27.50;58.10
73252;DHT22;61473;50.834;4.552;2022-08-05T05:25:34;27.50;58.10
73252;DHT22;61473;50.834;4.552;2022-08-05T05:27:59;27.50;58.10
73252;DHT22;61473;50.834;4.552;2022-08-05T05:30:26;27.40;58.10
73252;DHT22;61473;50.834;4.552;2022-08-05T05:32:51;27.40;58.10
73252;DHT22;61473;50.834;4.552;2022-08-05T05:35:17;27.40;58.10
73252;DHT22;61473;50.834;4.552;2022-08-05T05:37:54;27.40;58.10
73252;DHT22;61473;50.834;4.552;2022-08-05T05:40:24;27.40;58.10
73252;DHT22;61473;50.834;4.552;2022-08-05T05:42:50;27.40;58.10
73252;DHT22;61473;50.834;4.552;2022-08-05T05:45:16;27.40;58.10
73252;DHT22;61473;50.834;4.552;2022-08-05T05:47:42;27.40;58.10
73252;DHT22;61473;50.834;4.552;2022-08-05T05:50:10;27.40;58.00
73252;DHT22;61473;50.834;4.552;2022-08-05T05:52:36;27.40;58.00
73252;DHT22;61473;50.834;4.552;2022-08-05T05:55:04;27.40;57.90
73252;DHT22;61473;50.834;4.552;2022-08-05T05:57:30;27.50;58.00
73252;DHT22;61473;50.834;4.552;2022-08-05T05:59:55;27.50;57.90
73252;DHT22;61473;50.834;4.552;2022-08-05T06:02:21;27.50;57.90
73252;DHT22;61473;50.834;4.552;2022-08-05T06:04:47;27.50;57.90
73252;DHT22;61473;50.834;4.552;2022-08-05T06:07:13;27.50;57.90
73252;DHT22;61473;50.834;4.552;2022-08-05T06:09:39;27.50;57.90
73252;DHT22;61473;50.834;4.552;2022-08-05T06:12:05;27.50;57.80
73252;DHT22;61473;50.834;4.552;2022-08-05T06:14:31;27.50;57.80
73252;DHT22;61473;50.834;4.552;2022-08-05T06:16:57;27.50;57.80
73252;DHT22;61473;50.834;4.552;2022-08-05T06:19:23;27.50;57.70
73252;DHT22;61473;50.834;4.552;2022-08-05T06:21:49;27.50;57.60
73252;DHT22;61473;50.834;4.552;2022-08-05T06:24:14;27.50;57.60
73252;DHT22;61473;50.834;4.552;2022-08-05T06:26:41;27.50;57.60
73252;DHT22;61473;50.834;4.552;2022-08-05T06:29:07;27.50;58.20
73252;DHT22;61473;50.834;4.552;2022-08-05T06:31:32;27.50;57.50
73252;DHT22;61473;50.834;4.552;2022-08-05T06:33:58;27.40;55.50
73252;DHT22;61473;50.834;4.552;2022-08-05T06:36:24;26.50;56.80
73252;DHT22;61473;50.834;4.552;2022-08-05T06:38:49;25.80;57.80
73252;DHT22;61473;50.834;4.552;2022-08-05T06:41:19;25.60;58.90
73252;DHT22;61473;50.834;4.552;2022-08-05T06:43:45;25.20;59.90
73252;DHT22;61473;50.834;4.552;2022-08-05T06:46:10;25.10;60.80
73252;DHT22;61473;50.834;4.552;2022-08-05T06:48:36;25.00;60.40
73252;DHT22;61473;50.834;4.552;2022-08-05T06:51:03;24.90;60.60
73252;DHT22;61473;50.834;4.552;2022-08-05T06:53:29;24.90;60.60
73252;DHT22;61473;50.834;4.552;2022-08-05T06:55:58;24.90;60.60
73252;DHT22;61473;50.834;4.552;2022-08-05T06:58:25;25.00;60.40
73252;DHT22;61473;50.834;4.552;2022-08-05T07:00:51;24.90;60.80
73252;DHT22;61473;50.834;4.552;2022-08-05T07:03:17;24.80;60.80
73252;DHT22;61473;50.834;4.552;2022-08-05T07:05:43;24.80;60.70
73252;DHT22;61473;50.834;4.552;2022-08-05T07:08:09;24.80;61.00
73252;DHT22;61473;50.834;4.552;2022-08-05T07:10:35;24.80;60.90
73252;DHT22;61473;50.834;4.552;2022-08-05T07:13:01;24.80;60.90
73252;DHT22;61473;50.834;4.552;2022-08-05T07:15:46;24.80;61.10
73252;DHT22;61473;50.834;4.552;2022-08-05T07:18:30;24.60;62.90
73252;DHT22;61473;50.834;4.552;2022-08-05T07:20:56;24.50;61.90
73252;DHT22;61473;50.834;4.552;2022-08-05T07:23:21;24.60;61.80
73252;DHT22;61473;50.834;4.552;2022-08-05T07:25:47;24.30;61.80
73252;DHT22;61473;50.834;4.552;2022-08-05T07:28:13;24.50;62.10
73252;DHT22;61473;50.834;4.552;2022-08-05T07:30:39;24.50;62.80
73252;DHT22;61473;50.834;4.552;2022-08-05T07:33:06;24.50;61.90
73252;DHT22;61473;50.834;4.552;2022-08-05T07:35:32;24.60;62.30
73252;DHT22;61473;50.834;4.552;2022-08-05T07:37:57;24.70;62.10
73252;DHT22;61473;50.834;4.552;2022-08-05T07:40:32;24.70;62.30
73252;DHT22;61473;50.834;4.552;2022-08-05T07:42:58;24.80;61.90
73252;DHT22;61473;50.834;4.552;2022-08-05T07:45:24;24.90;61.70
73252;DHT22;61473;50.834;4.552;2022-08-05T07:47:50;25.00;61.60
73252;DHT22;61473;50.834;4.552;2022-08-05T07:50:17;24.90;61.90
73252;DHT22;61473;50.834;4.552;2022-08-05T07:52:43;24.90;61.80
73252;DHT22;61473;50.834;4.552;2022-08-05T07:55:09;24.80;61.70
73252;DHT22;61473;50.834;4.552;2022-08-05T07:57:35;24.80;62.10
73252;DHT22;61473;50.834;4.552;2022-08-05T08:00:03;24.80;61.90
73252;DHT22;61473;50.834;4.552;2022-08-05T08:02:29;24.70;62.10
73252;DHT22;61473;50.834;4.552;2022-08-05T08:04:55;24.70;62.10
73252;DHT22;61473;50.834;4.552;2022-08-05T08:07:21;24.80;61.50
73252;DHT22;61473;50.834;4.552;2022-08-05T08:09:47;25.10;61.20
73252;DHT22;61473;50.834;4.552;2022-08-05T08:12:14;25.10;61.20
73252;DHT22;61473;50.834;4.552;2022-08-05T08:14:40;25.00;61.00
73252;DHT22;61473;50.834;4.552;2022-08-05T08:17:06;24.90;60.50
73252;DHT22;61473;50.834;4.552;2022-08-05T08:19:39;24.90;60.50
73252;DHT22;61473;50.834;4.552;2022-08-05T08:22:06;24.90;60.60
73252;DHT22;61473;50.834;4.552;2022-08-05T08:24:33;24.80;60.90
73252;DHT22;61473;50.834;4.552;2022-08-05T08:26:59;24.80;60.90
73252;DHT22;61473;50.834;4.552;2022-08-05T08:29:25;24.70;60.80
73252;DHT22;61473;50.834;4.552;2022-08-05T08:31:51;24.70;61.00
73252;DHT22;61473;50.834;4.552;2022-08-05T08:34:17;24.70;61.10
73252;DHT22;61473;50.834;4.552;2022-08-05T08:36:43;24.70;61.10
73252;DHT22;61473;50.834;4.552;2022-08-05T08:39:09;24.80;60.60
73252;DHT22;61473;50.834;4.552;2022-08-05T08:41:36;24.90;60.70
73252;DHT22;61473;50.834;4.552;2022-08-05T08:44:07;25.00;60.40
73252;DHT22;61473;50.834;4.552;2022-08-05T08:46:33;25.00;61.00
73252;DHT22;61473;50.834;4.552;2022-08-05T08:49:02;25.00;60.90
73252;DHT22;61473;50.834;4.552;2022-08-05T08:51:31;25.10;60.60
73252;DHT22;61473;50.834;4.552;2022-08-05T08:53:57;25.20;60.00
73252;DHT22;61473;50.834;4.552;2022-08-05T08:56:23;25.40;59.80
73252;DHT22;61473;50.834;4.552;2022-08-05T08:58:49;25.40;58.90
73252;DHT22;61473;50.834;4.552;2022-08-05T09:01:16;25.50;58.20
73252;DHT22;61473;50.834;4.552;2022-08-05T09:03:47;25.60;57.60
73252;DHT22;61473;50.834;4.552;2022-08-05T09:06:13;25.70;57.40
73252;DHT22;61473;50.834;4.552;2022-08-05T09:08:38;25.70;56.70
73252;DHT22;61473;50.834;4.552;2022-08-05T09:11:05;25.80;56.50
73252;DHT22;61473;50.834;4.552;2022-08-05T09:13:30;26.00;56.70
73252;DHT22;61473;50.834;4.552;2022-08-05T09:15:58;26.00;56.10
73252;DHT22;61473;50.834;4.552;2022-08-05T09:18:24;26.00;56.20
73252;DHT22;61473;50.834;4.552;2022-08-05T09:20:50;26.00;56.50
73252;DHT22;61473;50.834;4.552;2022-08-05T09:23:17;26.10;56.70
73252;DHT22;61473;50.834;4.552;2022-08-05T09:25:49;26.20;55.90
73252;DHT22;61473;50.834;4.552;2022-08-05T09:28:20;26.20;56.40
73252;DHT22;61473;50.834;4.552;2022-08-05T09:31:11;26.00;55.90
73252;DHT22;61473;50.834;4.552;2022-08-05T09:33:53;25.90;55.90
73252;DHT22;61473;50.834;4.552;2022-08-05T09:36:20;25.70;56.40
73252;DHT22;61473;50.834;4.552;2022-08-05T09:39:01;25.70;56.50
73252;DHT22;61473;50.834;4.552;2022-08-05T09:41:28;25.80;55.50
73252;DHT22;61473;50.834;4.552;2022-08-05T09:43:54;26.00;55.10
73252;DHT22;61473;50.834;4.552;2022-08-05T09:46:24;26.10;54.60
73252;DHT22;61473;50.834;4.552;2022-08-05T09:48:51;26.00;54.50
73252;DHT22;61473;50.834;4.552;2022-08-05T09:51:36;25.90;55.00
73252;DHT22;61473;50.834;4.552;2022-08-05T09:54:04;25.80;55.60
73252;DHT22;61473;50.834;4.552;2022-08-05T09:56:34;25.60;55.30
73252;DHT22;61473;50.834;4.552;2022-08-05T09:59:08;25.50;55.10
73252;DHT22;61473;50.834;4.552;2022-08-05T10:01:36;25.40;55.10
73252;DHT22;61473;50.834;4.552;2022-08-05T10:04:07;25.40;55.10
73252;DHT22;61473;50.834;4.552;2022-08-05T10:06:35;25.50;55.30
73252;DHT22;61473;50.834;4.552;2022-08-05T10:09:14;25.70;53.90
73252;DHT22;61473;50.834;4.552;2022-08-05T10:11:41;25.80;53.10
73252;DHT22;61473;50.834;4.552;2022-08-05T10:14:26;26.00;52.60
73252;DHT22;61473;50.834;4.552;2022-08-05T10:16:54;26.10;52.60
73252;DHT22;61473;50.834;4.552;2022-08-05T10:19:26;26.20;52.80
73252;DHT22;61473;50.834;4.552;2022-08-05T10:21:52;26.30;51.90
73252;DHT22;61473;50.834;4.552;2022-08-05T10:24:19;26.20;51.50
73252;DHT22;61473;50.834;4.552;2022-08-05T10:26:47;26.20;51.40
73252;DHT22;61473;50.834;4.552;2022-08-05T10:29:13;26.30;51.90
73252;DHT22;61473;50.834;4.552;2022-08-05T10:31:39;26.40;51.40
73252;DHT22;61473;50.834;4.552;2022-08-05T10:34:06;26.50;50.50
73252;DHT22;61473;50.834;4.552;2022-08-05T10:36:33;26.60;49.50
73252;DHT22;61473;50.834;4.552;2022-08-05T10:39:04;26.60;50.40
73252;DHT22;61473;50.834;4.552;2022-08-05T10:41:48;26.70;50.00
73252;DHT22;61473;50.834;4.552;2022-08-05T10:44:17;26.70;49.70
73252;DHT22;61473;50.834;4.552;2022-08-05T10:46:48;26.50;49.30
73252;DHT22;61473;50.834;4.552;2022-08-05T10:49:18;26.40;49.70
73252;DHT22;61473;50.834;4.552;2022-08-05T10:51:50;26.40;49.90
73252;DHT22;61473;50.834;4.552;2022-08-05T10:54:21;26.50;49.80
73252;DHT22;61473;50.834;4.552;2022-08-05T10:56:52;26.70;50.00
73252;DHT22;61473;50.834;4.552;2022-08-05T10:59:30;26.70;49.50
73252;DHT22;61473;50.834;4.552;2022-08-05T11:02:10;26.80;49.70
73252;DHT22;61473;50.834;4.552;2022-08-05T11:07:09;26.80;49.00
73252;DHT22;61473;50.834;4.552;2022-08-05T11:09:47;26.80;48.60
73252;DHT22;61473;50.834;4.552;2022-08-05T11:15:22;26.90;48.40
73252;DHT22;61473;50.834;4.552;2022-08-05T11:17:49;26.80;48.50
73252;DHT22;61473;50.834;4.552;2022-08-05T11:20:46;26.80;47.70
73252;DHT22;61473;50.834;4.552;2022-08-05T11:23:33;26.80;47.30
73252;DHT22;61473;50.834;4.552;2022-08-05T11:41:20;26.70;45.40
73252;DHT22;61473;50.834;4.552;2022-08-05T11:44:04;26.80;44.80
73252;DHT22;61473;50.834;4.552;2022-08-05T11:49:07;26.80;45.10
73252;DHT22;61473;50.834;4.552;2022-08-05T11:51:35;26.70;45.60
73252;DHT22;61473;50.834;4.552;2022-08-05T11:54:01;26.60;45.40
73252;DHT22;61473;50.834;4.552;2022-08-05T11:56:50;26.60;45.50
73252;DHT22;61473;50.834;4.552;2022-08-05T11:59:21;26.50;45.90
73252;DHT22;61473;50.834;4.552;2022-08-05T12:02:04;26.50;45.90
73252;DHT22;61473;50.834;4.552;2022-08-05T12:04:38;26.50;46.20
73252;DHT22;61473;50.834;4.552;2022-08-05T12:07:06;26.50;45.90
73252;DHT22;61473;50.834;4.552;2022-08-05T12:09:57;26.60;46.20
73252;DHT22;61473;50.834;4.552;2022-08-05T12:12:23;26.60;45.90
73252;DHT22;61473;50.834;4.552;2022-08-05T12:14:49;26.60;45.90
73252;DHT22;61473;50.834;4.552;2022-08-05T12:17:16;26.60;46.20
73252;DHT22;61473;50.834;4.552;2022-08-05T12:19:45;26.70;46.50
73252;DHT22;61473;50.834;4.552;2022-08-05T12:22:16;26.60;46.40
73252;DHT22;61473;50.834;4.552;2022-08-05T12:24:45;26.60;46.40
73252;DHT22;61473;50.834;4.552;2022-08-05T12:27:19;26.70;46.50
73252;DHT22;61473;50.834;4.552;2022-08-05T12:29:46;26.60;46.50
73252;DHT22;61473;50.834;4.552;2022-08-05T12:32:22;26.50;46.80
73252;DHT22;61473;50.834;4.552;2022-08-05T12:34:48;26.50;46.90
73252;DHT22;61473;50.834;4.552;2022-08-05T12:37:15;26.40;46.90
73252;DHT22;61473;50.834;4.552;2022-08-05T12:39:41;26.40;47.00
73252;DHT22;61473;50.834;4.552;2022-08-05T12:42:12;26.30;46.80
73252;DHT22;61473;50.834;4.552;2022-08-05T12:44:40;26.30;46.80
73252;DHT22;61473;50.834;4.552;2022-08-05T12:47:06;26.30;47.30
73252;DHT22;61473;50.834;4.552;2022-08-05T12:52:11;26.50;46.70
73252;DHT22;61473;50.834;4.552;2022-08-05T12:54:40;26.50;46.00
73252;DHT22;61473;50.834;4.552;2022-08-05T12:57:07;26.40;46.30
73252;DHT22;61473;50.834;4.552;2022-08-05T12:59:49;26.30;46.20
73252;DHT22;61473;50.834;4.552;2022-08-05T13:02:19;26.30;46.00
73252;DHT22;61473;50.834;4.552;2022-08-05T13:04:47;26.30;46.20
73252;DHT22;61473;50.834;4.552;2022-08-05T13:07:16;26.30;46.10
73252;DHT22;61473;50.834;4.552;2022-08-05T13:09:56;26.40;46.50
73252;DHT22;61473;50.834;4.552;2022-08-05T13:12:25;26.50;45.70
73252;DHT22;61473;50.834;4.552;2022-08-05T13:14:58;26.60;44.80
73252;DHT22;61473;50.834;4.552;2022-08-05T13:17:28;26.70;44.30
73252;DHT22;61473;50.834;4.552;2022-08-05T13:22:32;26.60;43.70
73252;DHT22;61473;50.834;4.552;2022-08-05T13:25:00;26.60;43.10
73252;DHT22;61473;50.834;4.552;2022-08-05T13:27:28;26.60;43.40
73252;DHT22;61473;50.834;4.552;2022-08-05T13:29:54;26.70;42.70
73252;DHT22;61473;50.834;4.552;2022-08-05T13:32:20;26.80;43.10
73252;DHT22;61473;50.834;4.552;2022-08-05T13:34:47;26.90;43.60
73252;DHT22;61473;50.834;4.552;2022-08-05T13:37:13;27.00;43.30
73252;DHT22;61473;50.834;4.552;2022-08-05T13:39:40;27.00;42.90
73252;DHT22;61473;50.834;4.552;2022-08-05T13:42:06;27.10;43.20
73252;DHT22;61473;50.834;4.552;2022-08-05T13:44:32;27.10;42.80
73252;DHT22;61473;50.834;4.552;2022-08-05T13:46:58;27.10;42.90
73252;DHT22;61473;50.834;4.552;2022-08-05T13:49:23;27.10;43.30
73252;DHT22;61473;50.834;4.552;2022-08-05T13:51:49;27.10;42.60
73252;DHT22;61473;50.834;4.552;2022-08-05T13:54:15;27.00;42.00
73252;DHT22;61473;50.834;4.552;2022-08-05T13:56:43;27.00;42.10
73252;DHT22;61473;50.834;4.552;2022-08-05T13:59:09;27.00;42.10
73252;DHT22;61473;50.834;4.552;2022-08-05T14:01:35;27.00;42.50
73252;DHT22;61473;50.834;4.552;2022-08-05T14:04:00;27.00;42.80
73252;DHT22;61473;50.834;4.552;2022-08-05T14:06:45;27.00;42.20
73252;DHT22;61473;50.834;4.552;2022-08-05T14:09:10;27.00;42.20
73252;DHT22;61473;50.834;4.552;2022-08-05T14:11:36;27.00;42.10
73252;DHT22;61473;50.834;4.552;2022-08-05T14:14:06;27.00;42.10
73252;DHT22;61473;50.834;4.552;2022-08-05T14:16:31;27.00;41.70
73252;DHT22;61473;50.834;4.552;2022-08-05T14:18:57;27.00;41.50
73252;DHT22;61473;50.834;4.552;2022-08-05T14:21:23;27.00;42.20
73252;DHT22;61473;50.834;4.552;2022-08-05T14:23:48;27.10;42.10
73252;DHT22;61473;50.834;4.552;2022-08-05T14:26:14;27.10;41.70
73252;DHT22;61473;50.834;4.552;2022-08-05T14:28:40;27.00;41.20
73252;DHT22;61473;50.834;4.552;2022-08-05T14:31:06;27.00;41.20
73252;DHT22;61473;50.834;4.552;2022-08-05T14:33:31;26.90;41.60
73252;DHT22;61473;50.834;4.552;2022-08-05T14:35:58;26.90;41.50
73252;DHT22;61473;50.834;4.552;2022-08-05T14:38:24;27.00;42.20
73252;DHT22;61473;50.834;4.552;2022-08-05T14:40:50;27.00;42.30
73252;DHT22;61473;50.834;4.552;2022-08-05T14:43:16;26.90;42.00
73252;DHT22;61473;50.834;4.552;2022-08-05T14:45:42;26.80;42.00
73252;DHT22;61473;50.834;4.552;2022-08-05T14:48:07;26.70;42.30
73252;DHT22;61473;50.834;4.552;2022-08-05T14:50:33;26.60;42.60
73252;DHT22;61473;50.834;4.552;2022-08-05T14:52:59;26.60;42.30
73252;DHT22;61473;50.834;4.552;2022-08-05T14:55:27;26.50;42.30
73252;DHT22;61473;50.834;4.552;2022-08-05T14:57:53;26.50;42.40
73252;DHT22;61473;50.834;4.552;2022-08-05T15:00:19;26.40;42.40
73252;DHT22;61473;50.834;4.552;2022-08-05T15:02:46;26.40;41.90
73252;DHT22;61473;50.834;4.552;2022-08-05T15:05:12;26.40;42.00
73252;DHT22;61473;50.834;4.552;2022-08-05T15:07:39;26.40;42.20
73252;DHT22;61473;50.834;4.552;2022-08-05T15:10:06;26.20;41.50
73252;DHT22;61473;50.834;4.552;2022-08-05T15:12:31;26.10;41.80
73252;DHT22;61473;50.834;4.552;2022-08-05T15:14:58;26.10;41.70
73252;DHT22;61473;50.834;4.552;2022-08-05T15:17:24;26.10;41.90
73252;DHT22;61473;50.834;4.552;2022-08-05T15:19:50;26.10;41.50
73252;DHT22;61473;50.834;4.552;2022-08-05T15:22:15;26.10;41.20
73252;DHT22;61473;50.834;4.552;2022-08-05T15:24:41;26.00;41.40
73252;DHT22;61473;50.834;4.552;2022-08-05T15:27:08;26.00;41.20
73252;DHT22;61473;50.834;4.552;2022-08-05T15:29:34;25.90;40.90
73252;DHT22;61473;50.834;4.552;2022-08-05T15:31:59;25.90;41.10
73252;DHT22;61473;50.834;4.552;2022-08-05T15:34:25;25.80;40.90
73252;DHT22;61473;50.834;4.552;2022-08-05T15:36:51;25.90;41.00
73252;DHT22;61473;50.834;4.552;2022-08-05T15:39:16;25.90;40.90
73252;DHT22;61473;50.834;4.552;2022-08-05T15:41:42;26.00;41.10
73252;DHT22;61473;50.834;4.552;2022-08-05T15:44:08;26.00;40.90
73252;DHT22;61473;50.834;4.552;2022-08-05T15:46:33;25.80;40.70
73252;DHT22;61473;50.834;4.552;2022-08-05T15:48:59;25.60;41.20
73252;DHT22;61473;50.834;4.552;2022-08-05T15:51:26;25.60;41.80
73252;DHT22;61473;50.834;4.552;2022-08-05T15:53:52;25.60;41.90
73252;DHT22;61473;50.834;4.552;2022-08-05T15:56:19;25.50;41.90
73252;DHT22;61473;50.834;4.552;2022-08-05T15:58:44;25.50;42.30
73252;DHT22;61473;50.834;4.552;2022-08-05T16:01:11;25.40;42.30
73252;DHT22;61473;50.834;4.552;2022-08-05T16:03:40;25.40;42.40
73252;DHT22;61473;50.834;4.552;2022-08-05T16:06:07;25.40;42.50
73252;DHT22;61473;50.834;4.552;2022-08-05T16:08:33;25.40;42.60
73252;DHT22;61473;50.834;4.552;2022-08-05T16:10:59;25.40;42.90
73252;DHT22;61473;50.834;4.552;2022-08-05T16:13:25;25.40;43.20
73252;DHT22;61473;50.834;4.552;2022-08-05T16:15:51;25.40;43.20
73252;DHT22;61473;50.834;4.552;2022-08-05T16:18:17;25.40;43.40